sensor_id;sensor_type;location;lat;lon;timestamp;temperature;humidity
18408;DHT22;9330;52.210;21.174;2022-07-24T00:02:22;19.60;99.90
18408;DHT22;9330;52.210;21.174;2022-07-24T00:04:49;19.70;99.90
18408;DHT22;9330;52.210;21.174;2022-07-24T00:07:16;19.70;99.90
18408;DHT22;9330;52.210;21.174;2022-07-24T00:09:43;19.60;99.90
18408;DHT22;9330;52.210;21.174;2022-07-24T00:12:10;19.60;99.90
18408;DHT22;9330;52.210;21.174;2022-07-24T00:14:37;19.60;99.90
18408;DHT22;9330;52.210;21.174;2022-07-24T00:17:04;19.60;99.90
18408;DHT22;9330;52.210;21.174;2022-07-24T00:19:32;19.60;99.90
18408;DHT22;9330;52.210;21.174;2022-07-24T00:21:59;19.70;99.90
18408;DHT22;9330;52.210;21.174;2022-07-24T00:24:28;19.60;99.90
18408;DHT22;9330;52.210;21.174;2022-07-24T00:26:55;19.70;99.90
18408;DHT22;9330;52.210;21.174;2022-07-24T00:29:22;19.70;99.90
18408;DHT22;9330;52.210;21.174;2022-07-24T00:31:49;19.70;99.90
18408;DHT22;9330;52.210;21.174;2022-07-24T00:34:16;19.70;99.90
18408;DHT22;9330;52.210;21.174;2022-07-24T00:36:44;19.70;99.90
18408;DHT22;9330;52.210;21.174;2022-07-24T00:39:11;19.70;99.90
18408;DHT22;9330;52.210;21.174;2022-07-24T00:41:38;19.70;99.90
18408;DHT22;9330;52.210;21.174;2022-07-24T00:44:10;19.60;99.90
18408;DHT22;9330;52.210;21.174;2022-07-24T00:46:39;19.70;99.90
18408;DHT22;9330;52.210;21.174;2022-07-24T00:49:08;19.60;99.90
18408;DHT22;9330;52.210;21.174;2022-07-24T00:51:36;19.70;99.90
18408;DHT22;9330;52.210;21.174;2022-07-24T00:54:05;19.70;99.90
18408;DHT22;9330;52.210;21.174;2022-07-24T00:56:33;19.70;99.90
18408;DHT22;9330;52.210;21.174;2022-07-24T00:59:00;19.70;99.90
18408;DHT22;9330;52.210;21.174;2022-07-24T01:01:27;19.70;99.90
18408;DHT22;9330;52.210;21.174;2022-07-24T01:03:55;19.70;99.90
18408;DHT22;9330;52.210;21.174;2022-07-24T01:06:22;19.70;99.90
18408;DHT22;9330;52.210;21.174;2022-07-24T01:08:50;19.70;99.90
18408;DHT22;9330;52.210;21.174;2022-07-24T01:11:19;19.70;99.90
18408;DHT22;9330;52.210;21.174;2022-07-24T01:13:46;19.70;99.90
18408;DHT22;9330;52.210;21.174;2022-07-24T01:16:13;19.70;99.90
18408;DHT22;9330;52.210;21.174;2022-07-24T01:18:40;19.70;99.90
18408;DHT22;9330;52.210;21.174;2022-07-24T01:21:09;19.60;99.90
18408;DHT22;9330;52.210;21.174;2022-07-24T01:23:36;19.70;99.90
18408;DHT22;9330;52.210;21.174;2022-07-24T01:26:06;19.60;99.90
18408;DHT22;9330;52.210;21.174;2022-07-24T01:28:33;19.60;99.90
18408;DHT22;9330;52.210;21.174;2022-07-24T01:31:00;19.70;99.90
18408;DHT22;9330;52.210;21.174;2022-07-24T01:33:27;19.70;99.90
18408;DHT22;9330;52.210;21.174;2022-07-24T01:35:54;19.70;99.90
18408;DHT22;9330;52.210;21.174;2022-07-24T01:38:23;19.60;99.90
18408;DHT22;9330;52.210;21.174;2022-07-24T01:40:50;19.60;99.90
18408;DHT22;9330;52.210;21.174;2022-07-24T01:43:17;19.50;99.90
18408;DHT22;9330;52.210;21.174;2022-07-24T01:45:43;19.60;99.90
18408;DHT22;9330;52.210;21.174;2022-07-24T01:48:10;19.40;99.90
18408;DHT22;9330;52.210;21.174;2022-07-24T01:50:38;19.20;99.90
18408;DHT22;9330;52.210;21.174;2022-07-24T01:53:04;19.10;99.90
18408;DHT22;9330;52.210;21.174;2022-07-24T01:55:33;18.90;99.90
18408;DHT22;9330;52.210;21.174;2022-07-24T01:58:00;18.70;99.90
18408;DHT22;9330;52.210;21.174;2022-07-24T02:00:27;18.60;99.90
18408;DHT22;9330;52.210;21.174;2022-07-24T02:02:54;18.50;99.90
18408;DHT22;9330;52.210;21.174;2022-07-24T02:05:21;18.40;99.90
18408;DHT22;9330;52.210;21.174;2022-07-24T02:07:55;18.40;99.90
18408;DHT22;9330;52.210;21.174;2022-07-24T02:10:22;18.40;99.90
18408;DHT22;9330;52.210;21.174;2022-07-24T02:12:51;18.30;99.90
18408;DHT22;9330;52.210;21.174;2022-07-24T02:15:18;18.30;99.90
18408;DHT22;9330;52.210;21.174;2022-07-24T02:17:46;18.20;99.90
18408;DHT22;9330;52.210;21.174;2022-07-24T02:20:13;18.20;99.90
18408;DHT22;9330;52.210;21.174;2022-07-24T02:22:40;18.20;99.90
18408;DHT22;9330;52.210;21.174;2022-07-24T02:25:08;18.20;99.90
18408;DHT22;9330;52.210;21.174;2022-07-24T02:27:36;18.10;99.90
18408;DHT22;9330;52.210;21.174;2022-07-24T02:30:09;18.00;99.90
18408;DHT22;9330;52.210;21.174;2022-07-24T02:32:37;18.00;99.90
18408;DHT22;9330;52.210;21.174;2022-07-24T02:35:04;17.90;99.90
18408;DHT22;9330;52.210;21.174;2022-07-24T02:37:31;18.00;99.90
18408;DHT22;9330;52.210;21.174;2022-07-24T02:39:58;17.80;99.90
18408;DHT22;9330;52.210;21.174;2022-07-24T02:42:25;17.80;99.90
18408;DHT22;9330;52.210;21.174;2022-07-24T02:44:52;17.70;99.90
18408;DHT22;9330;52.210;21.174;2022-07-24T02:47:20;17.60;99.90
18408;DHT22;9330;52.210;21.174;2022-07-24T02:49:47;17.60;99.90
18408;DHT22;9330;52.210;21.174;2022-07-24T02:52:14;17.60;99.90
18408;DHT22;9330;52.210;21.174;2022-07-24T02:54:41;17.50;99.90
18408;DHT22;9330;52.210;21.174;2022-07-24T02:57:08;17.50;99.90
18408;DHT22;9330;52.210;21.174;2022-07-24T02:59:35;17.40;99.90
18408;DHT22;9330;52.210;21.174;2022-07-24T03:02:02;17.40;99.90
18408;DHT22;9330;52.210;21.174;2022-07-24T03:04:31;17.40;99.90
18408;DHT22;9330;52.210;21.174;2022-07-24T03:06:57;17.30;99.90
18408;DHT22;9330;52.210;21.174;2022-07-24T03:09:24;17.30;99.90
18408;DHT22;9330;52.210;21.174;2022-07-24T03:11:51;17.30;99.90
18408;DHT22;9330;52.210;21.174;2022-07-24T03:14:18;17.30;99.90
18408;DHT22;9330;52.210;21.174;2022-07-24T03:16:45;17.30;99.90
18408;DHT22;9330;52.210;21.174;2022-07-24T03:19:12;17.30;99.90
18408;DHT22;9330;52.210;21.174;2022-07-24T03:21:40;17.20;99.90
18408;DHT22;9330;52.210;21.174;2022-07-24T03:24:07;17.20;99.90
18408;DHT22;9330;52.210;21.174;2022-07-24T03:26:34;17.20;99.90
18408;DHT22;9330;52.210;21.174;2022-07-24T03:29:01;17.20;99.90
18408;DHT22;9330;52.210;21.174;2022-07-24T03:31:28;17.20;99.90
18408;DHT22;9330;52.210;21.174;2022-07-24T03:33:55;17.20;99.90
18408;DHT22;9330;52.210;21.174;2022-07-24T03:36:22;17.20;99.90
18408;DHT22;9330;52.210;21.174;2022-07-24T03:38:50;17.10;99.90
18408;DHT22;9330;52.210;21.174;2022-07-24T03:41:17;17.20;99.90
18408;DHT22;9330;52.210;21.174;2022-07-24T03:43:44;17.10;99.90
18408;DHT22;9330;52.210;21.174;2022-07-24T03:46:10;17.10;99.90
18408;DHT22;9330;52.210;21.174;2022-07-24T03:48:37;17.10;99.90
18408;DHT22;9330;52.210;21.174;2022-07-24T03:51:05;17.20;99.90
18408;DHT22;9330;52.210;21.174;2022-07-24T03:53:31;17.10;99.90
18408;DHT22;9330;52.210;21.174;2022-07-24T03:56:00;17.20;99.90
18408;DHT22;9330;52.210;21.174;2022-07-24T03:58:30;17.10;99.90
18408;DHT22;9330;52.210;21.174;2022-07-24T04:00:57;17.10;99.90
18408;DHT22;9330;52.210;21.174;2022-07-24T04:03:24;17.10;99.90
18408;DHT22;9330;52.210;21.174;2022-07-24T04:05:50;17.00;99.90
18408;DHT22;9330;52.210;21.174;2022-07-24T04:08:17;17.10;99.90
18408;DHT22;9330;52.210;21.174;2022-07-24T04:10:44;17.10;99.90
18408;DHT22;9330;52.210;21.174;2022-07-24T04:13:13;17.10;99.90
18408;DHT22;9330;52.210;21.174;2022-07-24T04:15:39;17.10;99.90
18408;DHT22;9330;52.210;21.174;2022-07-24T04:18:06;17.10;99.90
18408;DHT22;9330;52.210;21.174;2022-07-24T04:20:33;17.20;99.90
18408;DHT22;9330;52.210;21.174;2022-07-24T04:23:00;17.20;99.90
18408;DHT22;9330;52.210;21.174;2022-07-24T04:25:27;17.20;99.90
18408;DHT22;9330;52.210;21.174;2022-07-24T04:27:54;17.20;99.90
18408;DHT22;9330;52.210;21.174;2022-07-24T04:30:22;17.30;99.90
18408;DHT22;9330;52.210;21.174;2022-07-24T04:32:49;17.30;99.90
18408;DHT22;9330;52.210;21.174;2022-07-24T04:35:16;17.40;99.90
18408;DHT22;9330;52.210;21.174;2022-07-24T04:37:43;17.40;99.90
18408;DHT22;9330;52.210;21.174;2022-07-24T04:40:12;17.50;99.90
18408;DHT22;9330;52.210;21.174;2022-07-24T04:42:39;17.50;99.90
18408;DHT22;9330;52.210;21.174;2022-07-24T04:45:08;17.60;99.90
18408;DHT22;9330;52.210;21.174;2022-07-24T04:47:37;17.60;99.90
18408;DHT22;9330;52.210;21.174;2022-07-24T04:50:05;17.70;99.90
18408;DHT22;9330;52.210;21.174;2022-07-24T04:52:32;17.70;99.90
18408;DHT22;9330;52.210;21.174;2022-07-24T04:54:59;17.80;99.90
18408;DHT22;9330;52.210;21.174;2022-07-24T04:57:26;17.90;99.90
18408;DHT22;9330;52.210;21.174;2022-07-24T04:59:53;17.90;99.90
18408;DHT22;9330;52.210;21.174;2022-07-24T05:02:20;17.90;99.90
18408;DHT22;9330;52.210;21.174;2022-07-24T05:04:48;18.00;99.90
18408;DHT22;9330;52.210;21.174;2022-07-24T05:07:15;18.00;99.90
18408;DHT22;9330;52.210;21.174;2022-07-24T05:09:42;18.10;99.90
18408;DHT22;9330;52.210;21.174;2022-07-24T05:12:09;18.10;99.90
18408;DHT22;9330;52.210;21.174;2022-07-24T05:14:36;18.20;99.90
18408;DHT22;9330;52.210;21.174;2022-07-24T05:17:03;18.20;99.90
18408;DHT22;9330;52.210;21.174;2022-07-24T05:19:30;18.30;99.90
18408;DHT22;9330;52.210;21.174;2022-07-24T05:21:59;18.30;99.90
18408;DHT22;9330;52.210;21.174;2022-07-24T05:24:26;18.40;99.90
18408;DHT22;9330;52.210;21.174;2022-07-24T05:26:52;18.40;99.90
18408;DHT22;9330;52.210;21.174;2022-07-24T05:29:19;18.50;99.90
18408;DHT22;9330;52.210;21.174;2022-07-24T05:31:46;18.60;99.90
18408;DHT22;9330;52.210;21.174;2022-07-24T05:34:13;18.70;99.90
18408;DHT22;9330;52.210;21.174;2022-07-24T05:36:40;18.80;99.90
18408;DHT22;9330;52.210;21.174;2022-07-24T05:39:09;18.80;99.90
18408;DHT22;9330;52.210;21.174;2022-07-24T05:41:36;18.90;99.90
18408;DHT22;9330;52.210;21.174;2022-07-24T05:44:03;19.00;99.90
18408;DHT22;9330;52.210;21.174;2022-07-24T05:46:30;19.10;99.90
18408;DHT22;9330;52.210;21.174;2022-07-24T05:48:57;19.10;99.90
18408;DHT22;9330;52.210;21.174;2022-07-24T05:51:24;19.10;99.90
18408;DHT22;9330;52.210;21.174;2022-07-24T05:53:52;19.20;99.90
18408;DHT22;9330;52.210;21.174;2022-07-24T05:56:21;19.30;99.90
18408;DHT22;9330;52.210;21.174;2022-07-24T05:58:48;19.30;99.90
18408;DHT22;9330;52.210;21.174;2022-07-24T06:01:15;19.40;99.90
18408;DHT22;9330;52.210;21.174;2022-07-24T06:03:42;19.40;99.90
18408;DHT22;9330;52.210;21.174;2022-07-24T06:06:09;19.50;99.90
18408;DHT22;9330;52.210;21.174;2022-07-24T06:08:36;19.60;99.90
18408;DHT22;9330;52.210;21.174;2022-07-24T06:11:03;19.60;99.90
18408;DHT22;9330;52.210;21.174;2022-07-24T06:13:32;19.80;99.90
18408;DHT22;9330;52.210;21.174;2022-07-24T06:15:58;19.80;99.90
18408;DHT22;9330;52.210;21.174;2022-07-24T06:18:25;19.90;99.90
18408;DHT22;9330;52.210;21.174;2022-07-24T06:20:52;20.10;99.90
18408;DHT22;9330;52.210;21.174;2022-07-24T06:23:19;20.20;99.90
18408;DHT22;9330;52.210;21.174;2022-07-24T06:25:46;20.20;99.90
18408;DHT22;9330;52.210;21.174;2022-07-24T06:28:13;20.30;99.90
18408;DHT22;9330;52.210;21.174;2022-07-24T06:30:41;20.40;99.90
18408;DHT22;9330;52.210;21.174;2022-07-24T06:33:08;20.50;99.90
18408;DHT22;9330;52.210;21.174;2022-07-24T06:35:35;20.60;99.90
18408;DHT22;9330;52.210;21.174;2022-07-24T06:38:02;20.80;99.90
18408;DHT22;9330;52.210;21.174;2022-07-24T06:40:29;20.90;99.90
18408;DHT22;9330;52.210;21.174;2022-07-24T06:42:56;21.20;99.90
18408;DHT22;9330;52.210;21.174;2022-07-24T06:45:23;21.30;99.90
18408;DHT22;9330;52.210;21.174;2022-07-24T06:47:51;21.30;99.90
18408;DHT22;9330;52.210;21.174;2022-07-24T06:50:18;21.20;99.90
18408;DHT22;9330;52.210;21.174;2022-07-24T06:52:45;21.30;99.90
18408;DHT22;9330;52.210;21.174;2022-07-24T06:55:12;21.40;99.90
18408;DHT22;9330;52.210;21.174;2022-07-24T06:57:39;21.50;99.90
18408;DHT22;9330;52.210;21.174;2022-07-24T07:00:07;21.50;99.90
18408;DHT22;9330;52.210;21.174;2022-07-24T07:02:35;21.40;99.90
18408;DHT22;9330;52.210;21.174;2022-07-24T07:05:04;21.50;99.90
18408;DHT22;9330;52.210;21.174;2022-07-24T07:07:32;21.40;99.90
18408;DHT22;9330;52.210;21.174;2022-07-24T07:09:59;21.40;99.90
18408;DHT22;9330;52.210;21.174;2022-07-24T07:12:26;21.50;99.90
18408;DHT22;9330;52.210;21.174;2022-07-24T07:14:53;21.50;99.90
18408;DHT22;9330;52.210;21.174;2022-07-24T07:17:20;21.50;99.90
18408;DHT22;9330;52.210;21.174;2022-07-24T07:19:47;21.50;99.90
18408;DHT22;9330;52.210;21.174;2022-07-24T07:22:16;21.60;99.90
18408;DHT22;9330;52.210;21.174;2022-07-24T07:24:42;21.60;99.90
18408;DHT22;9330;52.210;21.174;2022-07-24T07:27:09;21.50;99.90
18408;DHT22;9330;52.210;21.174;2022-07-24T07:29:36;21.60;99.90
18408;DHT22;9330;52.210;21.174;2022-07-24T07:32:04;21.60;99.90
18408;DHT22;9330;52.210;21.174;2022-07-24T07:34:31;21.80;99.90
18408;DHT22;9330;52.210;21.174;2022-07-24T07:36:58;21.70;99.90
18408;DHT22;9330;52.210;21.174;2022-07-24T07:39:26;21.80;99.90
18408;DHT22;9330;52.210;21.174;2022-07-24T07:41:53;21.80;99.90
18408;DHT22;9330;52.210;21.174;2022-07-24T07:44:20;21.80;99.90
18408;DHT22;9330;52.210;21.174;2022-07-24T07:46:47;22.00;99.90
18408;DHT22;9330;52.210;21.174;2022-07-24T07:49:14;22.00;99.90
18408;DHT22;9330;52.210;21.174;2022-07-24T07:51:41;22.10;99.90
18408;DHT22;9330;52.210;21.174;2022-07-24T07:54:09;21.90;99.90
18408;DHT22;9330;52.210;21.174;2022-07-24T07:56:38;21.70;99.90
18408;DHT22;9330;52.210;21.174;2022-07-24T07:59:05;21.70;99.90
18408;DHT22;9330;52.210;21.174;2022-07-24T08:01:32;21.60;99.90
18408;DHT22;9330;52.210;21.174;2022-07-24T08:03:59;21.60;99.90
18408;DHT22;9330;52.210;21.174;2022-07-24T08:06:26;21.60;99.90
18408;DHT22;9330;52.210;21.174;2022-07-24T08:08:53;21.50;99.90
18408;DHT22;9330;52.210;21.174;2022-07-24T08:11:20;21.40;99.90
18408;DHT22;9330;52.210;21.174;2022-07-24T08:13:49;21.30;99.90
18408;DHT22;9330;52.210;21.174;2022-07-24T08:16:16;21.20;99.90
18408;DHT22;9330;52.210;21.174;2022-07-24T08:18:43;21.20;99.90
18408;DHT22;9330;52.210;21.174;2022-07-24T08:21:10;21.10;99.90
18408;DHT22;9330;52.210;21.174;2022-07-24T08:23:37;21.10;99.90
18408;DHT22;9330;52.210;21.174;2022-07-24T08:26:04;21.20;99.90
18408;DHT22;9330;52.210;21.174;2022-07-24T08:28:32;21.20;99.90
18408;DHT22;9330;52.210;21.174;2022-07-24T08:31:00;21.20;99.90
18408;DHT22;9330;52.210;21.174;2022-07-24T08:33:27;21.20;99.90
18408;DHT22;9330;52.210;21.174;2022-07-24T08:35:54;21.10;99.90
18408;DHT22;9330;52.210;21.174;2022-07-24T08:38:21;21.10;99.90
18408;DHT22;9330;52.210;21.174;2022-07-24T08:40:50;21.20;99.90
18408;DHT22;9330;52.210;21.174;2022-07-24T08:43:17;21.40;99.90
18408;DHT22;9330;52.210;21.174;2022-07-24T08:45:44;21.50;99.90
18408;DHT22;9330;52.210;21.174;2022-07-24T08:48:12;21.50;99.90
18408;DHT22;9330;52.210;21.174;2022-07-24T08:50:41;21.40;99.90
18408;DHT22;9330;52.210;21.174;2022-07-24T08:53:09;21.50;99.90
18408;DHT22;9330;52.210;21.174;2022-07-24T08:55:36;21.40;99.90
18408;DHT22;9330;52.210;21.174;2022-07-24T08:58:03;21.30;99.90
18408;DHT22;9330;52.210;21.174;2022-07-24T09:00:31;21.20;99.90
18408;DHT22;9330;52.210;21.174;2022-07-24T09:02:58;21.10;99.90
18408;DHT22;9330;52.210;21.174;2022-07-24T09:05:27;21.00;99.90
18408;DHT22;9330;52.210;21.174;2022-07-24T09:08:06;21.00;99.90
18408;DHT22;9330;52.210;21.174;2022-07-24T09:10:33;20.90;99.90
18408;DHT22;9330;52.210;21.174;2022-07-24T09:13:12;20.90;99.90
18408;DHT22;9330;52.210;21.174;2022-07-24T09:15:45;20.90;99.90
18408;DHT22;9330;52.210;21.174;2022-07-24T09:18:26;20.90;99.90
18408;DHT22;9330;52.210;21.174;2022-07-24T09:20:55;20.80;99.90
18408;DHT22;9330;52.210;21.174;2022-07-24T09:23:22;20.80;99.90
18408;DHT22;9330;52.210;21.174;2022-07-24T09:25:51;20.70;99.90
18408;DHT22;9330;52.210;21.174;2022-07-24T09:28:19;20.80;99.90
18408;DHT22;9330;52.210;21.174;2022-07-24T09:30:47;20.80;99.90
18408;DHT22;9330;52.210;21.174;2022-07-24T09:33:16;20.90;99.90
18408;DHT22;9330;52.210;21.174;2022-07-24T09:35:45;20.90;99.90
18408;DHT22;9330;52.210;21.174;2022-07-24T09:38:15;20.90;99.90
18408;DHT22;9330;52.210;21.174;2022-07-24T09:40:44;20.90;99.90
18408;DHT22;9330;52.210;21.174;2022-07-24T09:43:16;20.80;99.90
18408;DHT22;9330;52.210;21.174;2022-07-24T09:45:58;20.70;99.90
18408;DHT22;9330;52.210;21.174;2022-07-24T09:48:30;20.70;99.90
18408;DHT22;9330;52.210;21.174;2022-07-24T09:50:59;20.80;99.90
18408;DHT22;9330;52.210;21.174;2022-07-24T09:53:30;20.80;99.90
18408;DHT22;9330;52.210;21.174;2022-07-24T09:55:59;20.80;99.90
18408;DHT22;9330;52.210;21.174;2022-07-24T09:58:27;20.70;99.90
18408;DHT22;9330;52.210;21.174;2022-07-24T10:00:55;20.80;99.90
18408;DHT22;9330;52.210;21.174;2022-07-24T10:03:25;20.80;99.90
18408;DHT22;9330;52.210;21.174;2022-07-24T10:05:57;20.80;99.90
18408;DHT22;9330;52.210;21.174;2022-07-24T10:08:25;20.80;99.90
18408;DHT22;9330;52.210;21.174;2022-07-24T10:10:54;20.80;99.90
18408;DHT22;9330;52.210;21.174;2022-07-24T10:13:22;20.80;99.90
18408;DHT22;9330;52.210;21.174;2022-07-24T10:16:15;20.80;99.90
18408;DHT22;9330;52.210;21.174;2022-07-24T10:18:48;20.70;99.90
18408;DHT22;9330;52.210;21.174;2022-07-24T10:21:17;20.70;99.90
18408;DHT22;9330;52.210;21.174;2022-07-24T10:26:43;20.80;99.90
18408;DHT22;9330;52.210;21.174;2022-07-24T10:29:12;20.90;99.90
18408;DHT22;9330;52.210;21.174;2022-07-24T10:31:41;20.90;99.90
18408;DHT22;9330;52.210;21.174;2022-07-24T10:34:12;21.10;99.90
18408;DHT22;9330;52.210;21.174;2022-07-24T10:36:54;21.20;99.90
18408;DHT22;9330;52.210;21.174;2022-07-24T10:39:30;21.20;99.90
18408;DHT22;9330;52.210;21.174;2022-07-24T10:42:03;21.10;99.90
18408;DHT22;9330;52.210;21.174;2022-07-24T10:44:32;21.10;99.90
18408;DHT22;9330;52.210;21.174;2022-07-24T10:47:05;21.10;99.90
18408;DHT22;9330;52.210;21.174;2022-07-24T10:49:50;21.00;99.90
18408;DHT22;9330;52.210;21.174;2022-07-24T10:52:25;21.00;99.90
18408;DHT22;9330;52.210;21.174;2022-07-24T10:55:24;21.00;99.90
18408;DHT22;9330;52.210;21.174;2022-07-24T10:58:13;21.00;99.90
18408;DHT22;9330;52.210;21.174;2022-07-24T11:00:43;21.10;99.90
18408;DHT22;9330;52.210;21.174;2022-07-24T11:03:18;21.20;99.90
18408;DHT22;9330;52.210;21.174;2022-07-24T11:06:04;21.30;99.90
18408;DHT22;9330;52.210;21.174;2022-07-24T11:08:32;21.30;99.90
18408;DHT22;9330;52.210;21.174;2022-07-24T11:11:06;21.40;99.90
18408;DHT22;9330;52.210;21.174;2022-07-24T11:13:49;21.40;99.90
18408;DHT22;9330;52.210;21.174;2022-07-24T11:16:32;21.50;99.90
18408;DHT22;9330;52.210;21.174;2022-07-24T11:19:25;21.60;99.90
18408;DHT22;9330;52.210;21.174;2022-07-24T11:22:07;21.60;99.90
18408;DHT22;9330;52.210;21.174;2022-07-24T11:24:35;21.50;99.90
18408;DHT22;9330;52.210;21.174;2022-07-24T11:27:07;21.40;99.90
18408;DHT22;9330;52.210;21.174;2022-07-24T11:29:40;21.40;99.90
18408;DHT22;9330;52.210;21.174;2022-07-24T11:32:09;21.50;99.90
18408;DHT22;9330;52.210;21.174;2022-07-24T11:34:43;21.50;99.90
18408;DHT22;9330;52.210;21.174;2022-07-24T11:37:10;21.70;99.90
18408;DHT22;9330;52.210;21.174;2022-07-24T11:39:39;21.80;99.90
18408;DHT22;9330;52.210;21.174;2022-07-24T11:42:08;21.90;99.90
18408;DHT22;9330;52.210;21.174;2022-07-24T11:44:37;22.00;99.90
18408;DHT22;9330;52.210;21.174;2022-07-24T11:47:09;21.90;99.90
18408;DHT22;9330;52.210;21.174;2022-07-24T11:49:40;21.90;99.90
18408;DHT22;9330;52.210;21.174;2022-07-24T11:52:12;21.90;99.90
18408;DHT22;9330;52.210;21.174;2022-07-24T11:54:40;21.90;99.90
18408;DHT22;9330;52.210;21.174;2022-07-24T11:57:16;21.80;99.90
18408;DHT22;9330;52.210;21.174;2022-07-24T11:59:44;21.80;99.90
18408;DHT22;9330;52.210;21.174;2022-07-24T12:02:12;21.90;99.90
18408;DHT22;9330;52.210;21.174;2022-07-24T12:04:40;21.80;99.90
18408;DHT22;9330;52.210;21.174;2022-07-24T12:07:08;21.70;99.90
18408;DHT22;9330;52.210;21.174;2022-07-24T12:09:43;21.70;99.90
18408;DHT22;9330;52.210;21.174;2022-07-24T12:12:21;21.90;99.90
18408;DHT22;9330;52.210;21.174;2022-07-24T12:14:51;22.00;99.90
18408;DHT22;9330;52.210;21.174;2022-07-24T12:17:20;22.30;99.90
18408;DHT22;9330;52.210;21.174;2022-07-24T12:19:51;22.70;99.90
18408;DHT22;9330;52.210;21.174;2022-07-24T12:22:19;22.80;99.90
18408;DHT22;9330;52.210;21.174;2022-07-24T12:24:46;22.60;99.90
18408;DHT22;9330;52.210;21.174;2022-07-24T12:27:31;22.50;99.90
18408;DHT22;9330;52.210;21.174;2022-07-24T12:29:59;22.30;99.90
18408;DHT22;9330;52.210;21.174;2022-07-24T12:32:27;22.30;99.90
18408;DHT22;9330;52.210;21.174;2022-07-24T12:34:55;22.20;99.90
18408;DHT22;9330;52.210;21.174;2022-07-24T12:37:22;22.30;99.90
18408;DHT22;9330;52.210;21.174;2022-07-24T12:39:51;22.60;99.90
18408;DHT22;9330;52.210;21.174;2022-07-24T12:42:20;22.70;99.90
18408;DHT22;9330;52.210;21.174;2022-07-24T12:45:06;22.80;99.90
18408;DHT22;9330;52.210;21.174;2022-07-24T12:51:05;22.60;99.90
18408;DHT22;9330;52.210;21.174;2022-07-24T12:53:37;22.50;99.90
18408;DHT22;9330;52.210;21.174;2022-07-24T12:56:10;22.40;99.90
18408;DHT22;9330;52.210;21.174;2022-07-24T12:58:59;22.30;99.90
18408;DHT22;9330;52.210;21.174;2022-07-24T13:01:28;22.30;99.90
18408;DHT22;9330;52.210;21.174;2022-07-24T13:03:59;22.70;99.90
18408;DHT22;9330;52.210;21.174;2022-07-24T13:06:34;22.80;99.90
18408;DHT22;9330;52.210;21.174;2022-07-24T13:09:01;22.70;99.90
18408;DHT22;9330;52.210;21.174;2022-07-24T13:11:29;22.70;99.90
18408;DHT22;9330;52.210;21.174;2022-07-24T13:13:56;22.60;99.90
18408;DHT22;9330;52.210;21.174;2022-07-24T13:16:27;22.50;99.90
18408;DHT22;9330;52.210;21.174;2022-07-24T13:18:54;22.50;99.90
18408;DHT22;9330;52.210;21.174;2022-07-24T13:21:23;22.50;99.90
18408;DHT22;9330;52.210;21.174;2022-07-24T13:23:50;22.60;99.90
18408;DHT22;9330;52.210;21.174;2022-07-24T13:26:18;22.80;99.90
18408;DHT22;9330;52.210;21.174;2022-07-24T13:28:45;22.80;99.90
18408;DHT22;9330;52.210;21.174;2022-07-24T13:31:12;22.70;99.90
18408;DHT22;9330;52.210;21.174;2022-07-24T13:33:40;22.60;99.90
18408;DHT22;9330;52.210;21.174;2022-07-24T13:36:08;22.40;99.90
18408;DHT22;9330;52.210;21.174;2022-07-24T13:38:37;22.30;99.90
18408;DHT22;9330;52.210;21.174;2022-07-24T13:41:05;22.40;99.90
18408;DHT22;9330;52.210;21.174;2022-07-24T13:43:32;22.40;99.90
18408;DHT22;9330;52.210;21.174;2022-07-24T13:45:59;22.40;99.90
18408;DHT22;9330;52.210;21.174;2022-07-24T13:48:26;22.50;99.90
18408;DHT22;9330;52.210;21.174;2022-07-24T13:50:53;22.60;99.90
18408;DHT22;9330;52.210;21.174;2022-07-24T13:53:21;22.60;99.90
18408;DHT22;9330;52.210;21.174;2022-07-24T13:55:50;22.60;99.90
18408;DHT22;9330;52.210;21.174;2022-07-24T13:58:20;22.70;99.90
18408;DHT22;9330;52.210;21.174;2022-07-24T14:00:47;22.70;99.90
18408;DHT22;9330;52.210;21.174;2022-07-24T14:03:14;22.80;99.90
18408;DHT22;9330;52.210;21.174;2022-07-24T14:05:41;22.70;99.90
18408;DHT22;9330;52.210;21.174;2022-07-24T14:08:08;22.70;99.90
18408;DHT22;9330;52.210;21.174;2022-07-24T14:10:36;22.80;99.90
18408;DHT22;9330;52.210;21.174;2022-07-24T14:13:04;22.80;99.90
18408;DHT22;9330;52.210;21.174;2022-07-24T14:15:32;22.90;99.90
18408;DHT22;9330;52.210;21.174;2022-07-24T14:17:59;22.80;99.90
18408;DHT22;9330;52.210;21.174;2022-07-24T14:20:26;22.90;99.90
18408;DHT22;9330;52.210;21.174;2022-07-24T14:22:53;23.00;99.90
18408;DHT22;9330;52.210;21.174;2022-07-24T14:25:20;23.10;99.90
18408;DHT22;9330;52.210;21.174;2022-07-24T14:27:47;23.20;99.90
18408;DHT22;9330;52.210;21.174;2022-07-24T14:30:16;23.30;99.90
18408;DHT22;9330;52.210;21.174;2022-07-24T14:32:43;23.10;99.90
18408;DHT22;9330;52.210;21.174;2022-07-24T14:35:10;23.10;99.90
18408;DHT22;9330;52.210;21.174;2022-07-24T14:37:37;23.10;99.90
18408;DHT22;9330;52.210;21.174;2022-07-24T14:40:06;23.10;99.90
18408;DHT22;9330;52.210;21.174;2022-07-24T14:42:34;23.10;99.90
18408;DHT22;9330;52.210;21.174;2022-07-24T14:45:02;23.00;99.90
18408;DHT22;9330;52.210;21.174;2022-07-24T14:47:33;23.00;99.90
18408;DHT22;9330;52.210;21.174;2022-07-24T14:50:00;23.00;99.90
18408;DHT22;9330;52.210;21.174;2022-07-24T14:52:27;23.00;99.90
18408;DHT22;9330;52.210;21.174;2022-07-24T14:54:54;23.10;99.90
18408;DHT22;9330;52.210;21.174;2022-07-24T14:57:21;23.10;99.90
18408;DHT22;9330;52.210;21.174;2022-07-24T14:59:48;23.10;99.90
18408;DHT22;9330;52.210;21.174;2022-07-24T15:02:15;23.00;99.90
18408;DHT22;9330;52.210;21.174;2022-07-24T15:04:43;23.00;99.90
18408;DHT22;9330;52.210;21.174;2022-07-24T15:07:10;23.10;99.90
18408;DHT22;9330;52.210;21.174;2022-07-24T15:09:37;23.10;99.90
18408;DHT22;9330;52.210;21.174;2022-07-24T15:12:05;23.20;99.90
18408;DHT22;9330;52.210;21.174;2022-07-24T15:14:32;23.10;99.90
18408;DHT22;9330;52.210;21.174;2022-07-24T15:16:59;23.10;99.90
18408;DHT22;9330;52.210;21.174;2022-07-24T15:19:26;23.00;99.90
18408;DHT22;9330;52.210;21.174;2022-07-24T15:21:54;23.10;99.90
18408;DHT22;9330;52.210;21.174;2022-07-24T15:24:21;23.20;99.90
18408;DHT22;9330;52.210;21.174;2022-07-24T15:26:48;23.20;99.90
18408;DHT22;9330;52.210;21.174;2022-07-24T15:29:15;23.20;99.90
18408;DHT22;9330;52.210;21.174;2022-07-24T15:31:43;23.40;99.90
18408;DHT22;9330;52.210;21.174;2022-07-24T15:34:11;23.60;99.90
18408;DHT22;9330;52.210;21.174;2022-07-24T15:36:38;23.70;99.90
18408;DHT22;9330;52.210;21.174;2022-07-24T15:39:08;23.80;99.90
18408;DHT22;9330;52.210;21.174;2022-07-24T15:41:35;23.90;99.90
18408;DHT22;9330;52.210;21.174;2022-07-24T15:44:03;23.90;99.90
18408;DHT22;9330;52.210;21.174;2022-07-24T15:46:30;23.70;99.90